»·PEaware :: UAL717 KBUF-KPWM

UAL717 :: KBUF-KPWM

FLIGHT INFORMATION

Flight Status: Arrived
Operator:
United Airlines
More flights by this operator :: More flights under this callsign
Pilot: Ty S. (2873)
Aircraft: BOEING 767-300
(B763)
More flights by this aircraft type
Origin: KBUF Buffalo Niagara Intl
United States
Destination: KPWM Portland Intl
United States
More flights between these airports :: More routes between these airports
Route:
File this flight plan on PilotEdge
Remarks:
Altitude:
(Current/Filed)
35,000ft
Speed:
(Current/Filed)
450kts
Departed: 16-Jan-16 09:19 AM
Arrived: 16-Jan-16 10:27 AM
Distance/Time
Traveled:
371nm/1:08
Distance/Time
To Go:
Arrived

Flight Plot

Page will automatically refresh every two minutes.


Map Options




Map Legend


Flown Route
Filed Route
Departure Airport
Arrival Airport
Navaid (VOR, NDB)
Fix

Horizontal Profiles

Position Reports

Time Latitude Longitude Heading Altitude Ground
Speed
16-Jan-16 08:21 42.936695 -78.730456 133 735ft 0kts
16-Jan-16 08:22 42.936695 -78.730456 133 735ft 0kts
16-Jan-16 08:23 42.936695 -78.730456 133 735ft 0kts
16-Jan-16 08:24 42.936695 -78.730456 133 735ft 0kts
16-Jan-16 08:25 42.936695 -78.730456 133 735ft 0kts
16-Jan-16 08:26 42.936695 -78.730456 133 735ft 0kts
16-Jan-16 08:27 42.936695 -78.730456 133 735ft 0kts
16-Jan-16 08:28 42.936695 -78.730456 133 735ft 0kts
16-Jan-16 08:29 42.936695 -78.730456 133 735ft 0kts
16-Jan-16 08:30 42.936695 -78.730456 133 735ft 0kts
16-Jan-16 08:31 42.936695 -78.730456 133 735ft 0kts
16-Jan-16 08:32 42.936695 -78.730456 133 735ft 0kts
16-Jan-16 08:33 42.936695 -78.730456 133 735ft 0kts
16-Jan-16 08:34 42.936695 -78.730456 133 735ft 0kts
16-Jan-16 08:35 42.936695 -78.730456 133 735ft 0kts
16-Jan-16 08:36 42.936695 -78.730456 133 735ft 0kts
16-Jan-16 08:37 42.936695 -78.730456 133 735ft 0kts
16-Jan-16 08:38 42.936695 -78.730456 133 735ft 0kts
16-Jan-16 08:39 42.936695 -78.730456 133 735ft 0kts
16-Jan-16 08:40 42.936695 -78.730456 133 735ft 0kts
16-Jan-16 08:41 42.936695 -78.730456 133 735ft 0kts
16-Jan-16 08:42 42.936695 -78.730456 133 735ft 0kts
16-Jan-16 08:43 42.936695 -78.730456 133 735ft 0kts
16-Jan-16 08:44 42.936695 -78.730456 133 735ft 0kts
16-Jan-16 08:45 42.936695 -78.730456 133 735ft 0kts
16-Jan-16 08:46 42.936695 -78.730456 133 735ft 0kts
16-Jan-16 08:47 42.936695 -78.730456 133 735ft 0kts
16-Jan-16 08:48 42.936695 -78.730456 133 735ft 0kts
16-Jan-16 08:49 42.936695 -78.730456 133 735ft 0kts
16-Jan-16 08:50 42.936695 -78.730456 133 735ft 0kts
16-Jan-16 08:51 42.936695 -78.730456 133 735ft 0kts
16-Jan-16 08:52 42.936695 -78.730456 133 735ft 0kts
16-Jan-16 08:53 42.936695 -78.730456 133 735ft 0kts
16-Jan-16 08:54 42.936695 -78.730456 133 735ft 0kts
16-Jan-16 08:55 42.936695 -78.730456 133 735ft 0kts
16-Jan-16 08:56 42.936695 -78.730456 133 735ft 0kts
16-Jan-16 08:57 42.936695 -78.730456 133 735ft 0kts
16-Jan-16 08:58 42.936695 -78.730456 133 735ft 0kts
16-Jan-16 08:59 42.936695 -78.730456 133 735ft 0kts
16-Jan-16 09:00 42.936695 -78.730456 133 735ft 0kts
16-Jan-16 09:01 42.936695 -78.730456 133 735ft 0kts
16-Jan-16 09:02 42.936695 -78.730456 133 735ft 0kts
16-Jan-16 09:03 42.936695 -78.730456 133 735ft 0kts
16-Jan-16 09:04 42.936700 -78.730463 133 735ft 0kts
16-Jan-16 09:05 42.936963 -78.730988 57 735ft 0kts
16-Jan-16 09:06 42.936963 -78.730988 57 735ft 0kts
16-Jan-16 09:07 42.936963 -78.730988 57 735ft 0kts
16-Jan-16 09:08 42.936963 -78.730988 57 735ft 0kts
16-Jan-16 09:09 42.938405 -78.729744 356 735ft 5kts
16-Jan-16 09:10 42.941111 -78.726579 43 735ft 19kts
16-Jan-16 09:11 42.944259 -78.722470 43 735ft 12kts
16-Jan-16 09:12 42.946746 -78.719197 43 735ft 13kts
16-Jan-16 09:13 42.947931 -78.718287 334 735ft 10kts
16-Jan-16 09:14 42.943441 -78.725573 224 735ft 114kts
16-Jan-16 09:15 42.910854 -78.763849 224 3209ft 162kts
16-Jan-16 09:16 42.868213 -78.812466 219 4591ft 245kts
16-Jan-16 09:17 42.809113 -78.777595 105 7233ft 300kts
16-Jan-16 09:18 42.810184 -78.660753 88 10341ft 319kts
16-Jan-16 09:19 42.814333 -78.535960 87 12661ft 360kts
16-Jan-16 09:20 42.819572 -78.390836 88 15125ft 396kts
16-Jan-16 09:21 42.823728 -78.239243 89 17746ft 415kts
16-Jan-16 09:22 42.827368 -78.078829 90 20199ft 433kts
16-Jan-16 09:23 42.830831 -77.912134 90 22425ft 449kts
16-Jan-16 09:24 42.834153 -77.739743 90 24430ft 463kts
16-Jan-16 09:25 42.843586 -77.561216 87 26138ft 481kts
16-Jan-16 09:26 42.853315 -77.376979 87 27798ft 496kts
16-Jan-16 09:27 42.863436 -77.189409 88 29309ft 509kts
16-Jan-16 09:28 42.873119 -76.994768 88 30722ft 521kts
16-Jan-16 09:29 42.882631 -76.795306 88 32038ft 532kts
16-Jan-16 09:30 42.891768 -76.596560 89 33869ft 523kts
16-Jan-16 09:31 42.900367 -76.402143 89 34595ft 514kts
16-Jan-16 09:32 42.909001 -76.211463 89 34589ft 508kts
16-Jan-16 09:33 42.916962 -76.018791 89 34590ft 508kts
16-Jan-16 09:34 42.924487 -75.826728 89 34592ft 507kts
16-Jan-16 09:35 42.931698 -75.634405 89 34594ft 506kts
16-Jan-16 09:36 42.938544 -75.443535 90 34596ft 500kts
16-Jan-16 09:37 42.945246 -75.259595 91 34588ft 489kts
16-Jan-16 09:38 42.951392 -75.076453 91 34589ft 480kts
16-Jan-16 09:39 42.957020 -74.894775 91 34592ft 481kts
16-Jan-16 09:40 42.962415 -74.710758 91 34595ft 491kts
16-Jan-16 09:41 42.967638 -74.522901 91 34595ft 495kts
16-Jan-16 09:42 42.972463 -74.338484 91 34595ft 494kts
16-Jan-16 09:43 42.977613 -74.151676 92 34590ft 492kts
16-Jan-16 09:44 42.981916 -73.965047 92 34592ft 492kts
16-Jan-16 09:45 42.985880 -73.778578 92 34593ft 492kts
16-Jan-16 09:46 42.989549 -73.591693 92 34588ft 492kts
16-Jan-16 09:47 42.992913 -73.404760 92 34570ft 493kts
16-Jan-16 09:48 43.020913 -73.224300 74 34568ft 500kts
16-Jan-16 09:49 43.061665 -73.042248 75 33658ft 502kts
16-Jan-16 09:50 43.100727 -72.864880 77 31817ft 483kts
16-Jan-16 09:51 43.137715 -72.695082 78 30148ft 459kts
16-Jan-16 09:52 43.173525 -72.529484 77 28030ft 448kts
16-Jan-16 09:53 43.202268 -72.395816 77 26476ft 436kts
16-Jan-16 09:54 43.235522 -72.242215 77 24582ft 424kts
16-Jan-16 09:55 43.268034 -72.089140 76 22563ft 416kts
16-Jan-16 09:56 43.299653 -71.938915 76 20765ft 404kts
16-Jan-16 09:57 43.330137 -71.792958 75 19063ft 390kts
16-Jan-16 09:58 43.364180 -71.628770 75 17044ft 377kts
16-Jan-16 09:59 43.387608 -71.515022 75 15627ft 368kts
16-Jan-16 10:00 43.414992 -71.381261 74 13959ft 358kts
16-Jan-16 10:01 43.441773 -71.251574 75 12324ft 347kts
16-Jan-16 10:02 43.467900 -71.126341 69 10960ft 335kts
16-Jan-16 10:03 43.500721 -71.005182 69 10967ft 338kts
16-Jan-16 10:04 43.532953 -70.884650 70 10815ft 327kts
16-Jan-16 10:05 43.534143 -70.766425 94 9885ft 297kts
16-Jan-16 10:06 43.528243 -70.656580 93 8860ft 286kts
16-Jan-16 10:07 43.522339 -70.551457 92 7352ft 257kts
16-Jan-16 10:08 43.517058 -70.458464 93 6280ft 242kts
16-Jan-16 10:09 43.511702 -70.365926 92 4893ft 239kts
16-Jan-16 10:10 43.506903 -70.279345 92 3956ft 216kts
16-Jan-16 10:11 43.502275 -70.200544 91 3032ft 196kts
16-Jan-16 10:12 43.497972 -70.128602 91 2507ft 186kts
16-Jan-16 10:13 43.493657 -70.057298 91 2494ft 186kts
16-Jan-16 10:14 43.518972 -70.007114 30 2500ft 173kts
16-Jan-16 10:15 43.560578 -69.973049 29 2490ft 174kts
16-Jan-16 10:16 43.598426 -69.994149 306 2510ft 177kts
16-Jan-16 10:17 43.625402 -70.050043 291 2477ft 176kts
16-Jan-16 10:18 43.631423 -70.117718 279 2485ft 169kts
16-Jan-16 10:19 43.635541 -70.175469 279 1853ft 149kts
16-Jan-16 10:20 43.639477 -70.232386 279 1062ft 148kts
16-Jan-16 10:21 43.643342 -70.288837 279 328ft 147kts
16-Jan-16 10:22 43.645956 -70.326063 309 88ft 16kts
16-Jan-16 10:23 43.646981 -70.324599 121 88ft 8kts
16-Jan-16 10:24 43.646544 -70.319954 95 88ft 14kts
16-Jan-16 10:25 43.646204 -70.314733 93 88ft 11kts
16-Jan-16 10:26 43.646961 -70.312777 48 88ft 0kts
16-Jan-16 10:27 43.646961 -70.312777 48 88ft 0kts
16-Jan-16 10:28 43.646961 -70.312777 48 88ft 0kts
16-Jan-16 10:29 43.646961 -70.312777 48 88ft 0kts
16-Jan-16 10:30 43.646961 -70.312777 48 88ft 0kts
16-Jan-16 10:31 43.646961 -70.312777 48 88ft 0kts
16-Jan-16 10:32 43.644301 -70.303534 280 104ft 145kts
16-Jan-16 10:33 43.645911 -70.325954 302 88ft 17kts
16-Jan-16 10:34 43.647001 -70.324645 121 88ft 8kts
16-Jan-16 10:35 43.643788 -70.295955 280 228ft 147kts

Navigation Log

Ident Type
Flight plan parsing failed, navigation log unavailable